createdAt,value
2023-03-08T06:02:56.783Z,99726.00
2023-03-08T06:05:33.789Z,99726.50
2023-03-08T06:08:03.931Z,99719.44
2023-03-08T06:10:40.809Z,99713.47
2023-03-08T06:13:17.791Z,99711.13
2023-03-08T06:15:48.000Z,99716.97
2023-03-08T06:18:27.731Z,99708.13
2023-03-08T06:21:03.048Z,99704.34
2023-03-08T06:23:40.767Z,99711.00
2023-03-08T06:26:18.718Z,99709.00
2023-03-08T06:28:48.836Z,99709.94
2023-03-08T06:31:28.762Z,99715.06
2023-03-08T06:34:01.353Z,99710.91
2023-03-08T06:36:37.756Z,99705.88
2023-03-08T06:39:09.989Z,99710.41
2023-03-08T06:41:50.788Z,99715.78
2023-03-08T06:44:20.781Z,99713.66
2023-03-08T06:46:57.759Z,99709.00
2023-03-08T06:49:36.815Z,99712.81
2023-03-08T06:52:07.587Z,99706.50
2023-03-08T06:54:43.838Z,99706.72
2023-03-08T06:57:20.768Z,99716.75
2023-03-08T06:59:52.724Z,99705.53
2023-03-08T07:02:28.842Z,99706.84
2023-03-08T07:05:07.961Z,99699.72
2023-03-08T07:07:39.740Z,99703.03
2023-03-08T07:10:18.765Z,99699.78
2023-03-08T07:12:57.790Z,99701.25
2023-03-08T07:15:27.859Z,99694.31
2023-03-08T07:18:06.830Z,99691.09
2023-03-08T07:20:45.975Z,99695.75
2023-03-08T07:23:16.131Z,99690.25
2023-03-08T07:25:52.855Z,99697.66
2023-03-08T07:28:22.942Z,99692.19
2023-03-08T07:31:04.793Z,99687.84
2023-03-08T07:33:35.384Z,99687.75
2023-03-08T07:36:15.927Z,99671.03
2023-03-08T07:38:53.823Z,99678.78
2023-03-08T07:41:23.819Z,99681.41
2023-03-08T07:44:00.865Z,99670.78
2023-03-08T07:46:31.065Z,99673.66
2023-03-08T07:49:07.930Z,99672.31
2023-03-08T07:51:40.960Z,99665.63
2023-03-08T07:54:21.617Z,99670.88
2023-03-08T07:56:54.050Z,99669.06
2023-03-08T07:59:30.958Z,99671.59
2023-03-08T08:02:01.152Z,99657.97
2023-03-08T08:04:37.919Z,99655.00
2023-03-08T08:07:14.792Z,99650.81
2023-03-08T08:09:51.038Z,99654.59
2023-03-08T08:12:21.170Z,99655.75
2023-03-08T08:14:57.848Z,99646.63
2023-03-08T08:17:28.259Z,99638.22
2023-03-08T08:20:05.876Z,99637.00
2023-03-08T08:22:40.135Z,99636.16
2023-03-08T08:25:18.861Z,99628.00
2023-03-08T08:27:48.870Z,99625.25
2023-03-08T08:30:25.954Z,99629.41
2023-03-08T08:32:56.058Z,99625.72
2023-03-08T08:35:42.761Z,99633.22
2023-03-08T08:38:22.864Z,99633.94
2023-03-08T08:40:53.342Z,99632.19
2023-03-08T08:43:30.103Z,99634.22
2023-03-08T08:46:02.080Z,99630.66
2023-03-08T08:48:39.976Z,99636.63
2023-03-08T08:51:12.677Z,99631.84
2023-03-08T08:53:51.939Z,99632.56
2023-03-08T08:56:27.701Z,99637.16
2023-03-08T08:59:07.928Z,99633.53
2023-03-08T09:01:43.410Z,99636.88
2023-03-08T09:04:23.144Z,99631.63
2023-03-08T09:06:53.534Z,99626.97
2023-03-08T09:09:33.957Z,99626.97
2023-03-08T09:12:04.172Z,99633.13
2023-03-08T09:14:40.926Z,99625.31
2023-03-08T09:17:10.927Z,99621.81
2023-03-08T09:19:48.021Z,99606.16
2023-03-08T09:22:24.999Z,99599.50
2023-03-08T09:24:57.651Z,99597.81
2023-03-08T09:27:35.085Z,99593.59
2023-03-08T09:30:12.006Z,99588.75
2023-03-08T09:32:42.448Z,99578.88
2023-03-08T09:35:19.009Z,99576.75
2023-03-08T09:37:49.040Z,99573.81
2023-03-08T09:40:34.013Z,99570.97
2023-03-08T09:43:14.967Z,99562.25
2023-03-08T09:45:45.278Z,99562.00
2023-03-08T09:48:28.021Z,99553.72
2023-03-08T09:51:02.398Z,99543.75
2023-03-08T09:53:47.026Z,99544.31
2023-03-08T09:56:28.487Z,99559.28
2023-03-08T09:59:12.025Z,99559.59
2023-03-08T10:01:53.450Z,99562.78
2023-03-08T10:04:47.041Z,99561.81
2023-03-08T10:07:30.287Z,99556.56
2023-03-08T10:10:25.066Z,99555.44
2023-03-08T10:13:12.610Z,99552.69
2023-03-08T10:15:52.988Z,99559.63
2023-03-08T10:18:37.122Z,99560.31
2023-03-08T10:21:16.011Z,99552.41
2023-03-08T10:23:50.054Z,99547.56
2023-03-08T10:26:27.081Z,99541.84
2023-03-08T10:28:59.785Z,99529.06
2023-03-08T10:31:40.031Z,99516.06
2023-03-08T10:34:17.632Z,99493.53
2023-03-08T10:37:00.025Z,99497.53
2023-03-08T10:39:37.048Z,99495.06
2023-03-08T10:42:18.295Z,99494.09
2023-03-08T10:45:08.084Z,99488.94
2023-03-08T10:47:46.046Z,99491.06
2023-03-08T10:50:19.735Z,99498.97
2023-03-08T10:52:59.092Z,99503.69
2023-03-08T10:55:32.083Z,99508.09
2023-03-08T10:58:12.064Z,99504.38
2023-03-08T11:00:47.680Z,99496.63
2023-03-08T11:03:28.090Z,99515.00
2023-03-08T11:06:01.527Z,99507.66
2023-03-08T11:08:41.059Z,99512.13
2023-03-08T11:11:14.599Z,99523.00
2023-03-08T11:13:54.121Z,99533.91
2023-03-08T11:16:54.505Z,99528.34
2023-03-08T11:19:52.130Z,99516.53
2023-03-08T11:22:36.349Z,99501.94
2023-03-08T11:25:29.140Z,99498.34
2023-03-08T11:28:22.692Z,99499.78
2023-03-08T11:31:19.164Z,99498.72
2023-03-08T11:34:27.421Z,99502.94
2023-03-08T11:37:12.125Z,99501.78
2023-03-08T11:39:48.532Z,99487.25
2023-03-08T11:42:40.162Z,99482.94
2023-03-08T11:45:22.956Z,99475.13
2023-03-08T11:48:31.153Z,99470.78
2023-03-08T11:51:12.463Z,99478.28
2023-03-08T11:54:05.156Z,99470.88
2023-03-08T11:56:54.072Z,99456.22
2023-03-08T11:59:41.104Z,99457.50
2023-03-08T12:02:18.902Z,99456.38
2023-03-08T12:05:10.196Z,99465.66
2023-03-08T12:07:55.272Z,99442.56
2023-03-08T12:10:28.080Z,99451.81
2023-03-08T12:13:26.247Z,99454.63
2023-03-08T12:16:02.679Z,99453.06
2023-03-08T12:18:48.913Z,99453.47
2023-03-08T12:21:32.936Z,99460.38
2023-03-08T12:24:38.356Z,99466.88
2023-03-08T12:27:17.563Z,99466.66
2023-03-08T12:30:03.304Z,99475.34
2023-03-08T12:32:34.585Z,99483.88
2023-03-08T12:35:17.258Z,99476.75
2023-03-08T12:37:59.670Z,99469.75
2023-03-08T12:40:52.278Z,99468.00
2023-03-08T12:43:34.220Z,99451.66
2023-03-08T12:46:16.258Z,99453.66
2023-03-08T12:48:53.725Z,99442.16
2023-03-08T12:51:34.311Z,99441.53
2023-03-08T12:54:07.204Z,99447.06
2023-03-08T12:56:58.180Z,99437.91
2023-03-08T12:59:41.416Z,99453.19
2023-03-08T13:02:37.273Z,99465.19
2023-03-08T13:05:38.202Z,99460.91
2023-03-08T13:08:34.081Z,99463.75
2023-03-08T13:11:19.208Z,99468.38
2023-03-08T13:13:57.454Z,99466.06
2023-03-08T13:16:45.349Z,99464.47
2023-03-08T13:19:25.491Z,99461.97
2023-03-08T13:22:13.312Z,99454.97
2023-03-08T13:24:56.877Z,99450.88
2023-03-08T13:27:42.898Z,99442.34
2023-03-08T13:30:34.372Z,99446.94
2023-03-08T13:33:16.247Z,99447.53
2023-03-08T13:35:46.399Z,99446.22
2023-03-08T13:38:32.233Z,99452.53
2023-03-08T13:41:03.187Z,99442.56
2023-03-08T13:43:42.316Z,99438.63
2023-03-08T13:46:18.644Z,99445.88
2023-03-08T13:48:55.350Z,99437.81
2023-03-08T13:51:30.594Z,99431.59
2023-03-08T13:54:07.312Z,99430.94
2023-03-08T13:56:39.244Z,99422.75
2023-03-08T13:59:15.358Z,99437.41
